DNAA Airport Information

Runway Information
Runway 04 Length 11842 ft width 197 ft Elevation 1087 ft Threshold N/A Heading 35
Runway 22 Length 11842 ft Width 197 ft Elevation 1123 ft Threshold N/A Heading 215
Airport Frequencies
Type APP Name APP Frequency 127.9 MHZ
Type ATIS Name ATIS Frequency 123.9 MHZ
Type TWR Name TWR Frequency 119.8 MHZ
Airport Navaids
Type VOR-DME Name Abuja Frequency 116300 KHZ
Type NDB Name Abuja Frequency 321 KHZ
Type VOR-DME Name Gboko Frequency 115900 KHZ
Airport Weather Information & NOTAM
ADDS - METARS form results

(0358 UTC 31 January 2023)
Data provider http://aviationweather.gov/metar/data/
 
METAR text: DNAA 310300Z 08005KT CAVOK 22/11 Q1011 NOSIG
Conditions at: DNAA (ABUJA , NG) observed 0300 UTC 31 January 2023
Temperature: 22.0°C (72°F)
Dewpoint: 11.0°C (52°F) [RH = 50%]
Pressure (altimeter): 29.85 inches Hg (1011.0 mb)
Winds: from the E (80 degrees) at 6 MPH (5 knots; 2.6 m/s)
Visibility: 6 or more miles (10+ km)
Ceiling: ceiling and visibility are OK
Clouds: unknown
Weather: no significant weather observed at this time